Time;durP1;ratioP1;P1;durP2;ratioP2;P2;SDS_P1;SDS_P2;PMS_P1;PMS_P2;Temp;Humidity;BMP_temperature;BMP_pressure;BME280_temperature;BME280_humidity;BME280_pressure;Samples;Min_cycle;Max_cycle;Signal;HPM_P1;HPM_P2
2024/01/23 00:01:20;;;;;;;19.52;3.30;;;;;;;;;;5117502;28;20299;-87
2024/01/23 00:03:46;;;;;;;13.90;3.40;;;;;;;;;;5099867;28;20190;-82
2024/01/23 00:06:12;;;;;;;20.40;4.50;;;;;;;;;;5118109;28;20258;-81
2024/01/23 00:08:38;;;;;;;18.23;5.27;;;;;;;;;;5099735;28;20256;-82
2024/01/23 00:11:04;;;;;;;11.73;3.10;;;;;;;;;;5117844;28;20470;-80
2024/01/23 00:13:30;;;;;;;20.88;3.40;;;;;;;;;;5117687;28;20401;-84
2024/01/23 00:15:56;;;;;;;11.88;4.20;;;;;;;;;;5118083;28;20515;-83
2024/01/23 00:18:23;;;;;;;12.57;2.87;;;;;;;;;;5100569;28;20211;-83
2024/01/23 00:20:49;;;;;;;18.25;5.22;;;;;;;;;;5098098;28;20416;-81
2024/01/23 00:23:15;;;;;;;16.95;3.85;;;;;;;;;;5097660;28;20234;-81
2024/01/23 00:25:41;;;;;;;11.80;3.00;;;;;;;;;;5117665;28;20735;-82
2024/01/23 00:28:07;;;;;;;9.23;3.15;;;;;;;;;;5117602;28;20446;-82
2024/01/23 00:30:33;;;;;;;9.73;3.70;;;;;;;;;;5117353;28;20289;-82
2024/01/23 00:32:59;;;;;;;17.45;3.47;;;;;;;;;;5117352;28;20254;-82
2024/01/23 00:35:25;;;;;;;14.50;6.13;;;;;;;;;;5098468;28;20171;-81
2024/01/23 00:37:51;;;;;;;7.43;2.65;;;;;;;;;;5117752;28;20163;-82
2024/01/23 00:40:18;;;;;;;19.43;3.97;;;;;;;;;;5117476;28;20183;-82
2024/01/23 00:42:43;;;;;;;26.98;3.60;;;;;;;;;;5117073;28;20737;-83
2024/01/23 00:45:09;;;;;;;17.53;2.80;;;;;;;;;;5117599;28;20177;-81
2024/01/23 00:47:35;;;;;;;13.63;2.93;;;;;;;;;;5116990;28;20888;-82
2024/01/23 00:50:01;;;;;;;16.07;3.80;;;;;;;;;;5117457;28;20457;-82
2024/01/23 00:52:27;;;;;;;8.25;2.28;;;;;;;;;;5098209;28;20444;-82
2024/01/23 00:54:58;;;;;;;14.07;3.27;;;;;;;;;;5117506;28;20172;-81
2024/01/23 00:57:24;;;;;;;14.98;3.80;;;;;;;;;;5117352;28;20446;-82
2024/01/23 00:59:50;;;;;;;21.15;5.00;;;;;;;;;;5116874;28;20180;-82
2024/01/23 01:02:16;;;;;;;16.73;2.80;;;;;;;;;;5116846;28;20176;-81
2024/01/23 01:04:46;;;;;;;6.20;2.00;;;;;;;;;;5117246;28;20432;-81
2024/01/23 01:07:12;;;;;;;21.45;3.67;;;;;;;;;;5097874;28;20508;-81
2024/01/23 01:09:38;;;;;;;21.52;3.20;;;;;;;;;;5098576;28;20622;-82
2024/01/23 01:12:04;;;;;;;18.10;3.10;;;;;;;;;;5098964;28;20219;-82
2024/01/23 01:14:30;;;;;;;19.92;3.72;;;;;;;;;;5116513;28;20342;-83
2024/01/23 01:16:56;;;;;;;10.57;2.20;;;;;;;;;;5116939;28;20175;-82
2024/01/23 01:19:22;;;;;;;9.00;2.33;;;;;;;;;;5082553;28;20184;-81
2024/01/23 01:21:48;;;;;;;11.70;3.77;;;;;;;;;;5077448;28;20769;-82
2024/01/23 01:24:14;;;;;;;13.33;2.97;;;;;;;;;;5096890;28;20558;-82
2024/01/23 01:26:40;;;;;;;20.85;4.85;;;;;;;;;;5098113;28;20424;-82
2024/01/23 01:29:06;;;;;;;20.65;4.03;;;;;;;;;;5116080;28;20181;-83
2024/01/23 01:31:32;;;;;;;10.43;3.30;;;;;;;;;;5116456;28;20206;-83
2024/01/23 01:33:58;;;;;;;15.45;3.20;;;;;;;;;;5116662;28;20394;-82
2024/01/23 01:36:24;;;;;;;7.60;3.00;;;;;;;;;;5116090;28;20274;-81
2024/01/23 01:38:50;;;;;;;10.38;2.70;;;;;;;;;;5116120;28;20487;-82
2024/01/23 01:41:16;;;;;;;15.00;4.60;;;;;;;;;;5116391;28;20189;-82
2024/01/23 01:43:42;;;;;;;14.38;3.80;;;;;;;;;;5115991;28;20396;-82
2024/01/23 01:46:16;;;;;;;9.73;2.50;;;;;;;;;;5116016;28;20235;-82
2024/01/23 01:48:42;;;;;;;12.23;3.90;;;;;;;;;;5116238;28;20217;-82
2024/01/23 01:51:09;;;;;;;15.10;3.17;;;;;;;;;;5116702;28;20218;-82
2024/01/23 01:53:35;;;;;;;21.60;4.80;;;;;;;;;;5090077;28;20179;-83
2024/01/23 01:56:03;;;;;;;17.42;3.25;;;;;;;;;;5077628;28;20567;-81
2024/01/23 01:58:29;;;;;;;17.27;3.58;;;;;;;;;;5095408;28;20252;-83
2024/01/23 02:00:55;;;;;;;21.35;3.70;;;;;;;;;;5095733;28;20186;-83
2024/01/23 02:03:21;;;;;;;18.70;3.03;;;;;;;;;;5095921;28;20171;-82
2024/01/23 02:05:48;;;;;;;19.67;4.60;;;;;;;;;;5095851;28;20601;-82
2024/01/23 02:08:15;;;;;;;12.50;3.22;;;;;;;;;;5095515;28;20633;-82
2024/01/23 02:10:41;;;;;;;12.27;3.42;;;;;;;;;;5095128;28;20302;-83
2024/01/23 02:13:07;;;;;;;28.93;3.70;;;;;;;;;;5100086;28;20207;-83
2024/01/23 02:15:33;;;;;;;22.65;3.58;;;;;;;;;;5115284;28;20406;-83
2024/01/23 02:17:59;;;;;;;13.90;3.08;;;;;;;;;;5097949;28;20641;-82
2024/01/23 02:20:26;;;;;;;16.13;4.93;;;;;;;;;;5102130;28;20174;-82
2024/01/23 02:22:52;;;;;;;10.82;3.25;;;;;;;;;;5120027;28;20401;-82
2024/01/23 02:25:18;;;;;;;19.80;3.60;;;;;;;;;;5101559;28;20179;-82
2024/01/23 02:27:44;;;;;;;10.40;2.70;;;;;;;;;;5101503;28;20190;-83
2024/01/23 02:30:11;;;;;;;19.70;3.70;;;;;;;;;;5119966;28;20444;-82
2024/01/23 02:32:37;;;;;;;16.17;3.42;;;;;;;;;;5101461;28;20702;-83
2024/01/23 02:35:03;;;;;;;13.30;2.87;;;;;;;;;;5119825;28;20178;-82
2024/01/23 02:37:29;;;;;;;15.43;2.75;;;;;;;;;;5119614;28;20944;-81
2024/01/23 02:39:55;;;;;;;13.07;2.88;;;;;;;;;;5119085;28;20271;-83
2024/01/23 02:42:21;;;;;;;11.30;2.67;;;;;;;;;;5119592;28;20262;-80
2024/01/23 02:44:47;;;;;;;10.60;3.17;;;;;;;;;;5119663;28;20627;-83
2024/01/23 02:47:13;;;;;;;10.55;3.97;;;;;;;;;;5119487;28;20408;-81
2024/01/23 02:49:39;;;;;;;17.70;3.20;;;;;;;;;;5118796;28;20693;-83
2024/01/23 02:52:05;;;;;;;20.83;3.35;;;;;;;;;;5118770;28;20516;-83
2024/01/23 02:54:32;;;;;;;13.65;2.90;;;;;;;;;;5119057;28;20571;-85
2024/01/23 02:56:57;;;;;;;21.10;3.33;;;;;;;;;;5100887;28;20175;-83
2024/01/23 02:59:23;;;;;;;14.07;2.90;;;;;;;;;;5119427;28;20669;-82
2024/01/23 03:01:49;;;;;;;10.50;3.40;;;;;;;;;;5118843;28;20862;-82
2024/01/23 03:04:15;;;;;;;16.17;3.53;;;;;;;;;;5119283;28;20404;-82
2024/01/23 03:06:41;;;;;;;15.80;3.50;;;;;;;;;;5100586;28;20447;-83
2024/01/23 03:09:10;;;;;;;17.20;3.03;;;;;;;;;;5118634;28;20412;-82
2024/01/23 03:11:36;;;;;;;14.15;3.70;;;;;;;;;;5118531;28;20863;-83
2024/01/23 03:14:02;;;;;;;20.17;3.72;;;;;;;;;;5118663;28;20181;-82
2024/01/23 03:16:29;;;;;;;19.63;4.30;;;;;;;;;;5118851;28;20167;-82
2024/01/23 03:18:55;;;;;;;20.83;3.75;;;;;;;;;;5118788;28;20228;-82
2024/01/23 03:21:21;;;;;;;18.27;3.95;;;;;;;;;;5100342;28;20184;-82
2024/01/23 03:23:47;;;;;;;16.43;2.53;;;;;;;;;;5118557;28;20530;-82
2024/01/23 03:26:13;;;;;;;13.20;3.97;;;;;;;;;;5119066;28;20430;-82
2024/01/23 03:28:39;;;;;;;16.33;3.57;;;;;;;;;;5118346;28;20175;-83
2024/01/23 03:31:05;;;;;;;7.20;2.80;;;;;;;;;;5117547;28;20460;-81
2024/01/23 03:33:31;;;;;;;22.95;5.72;;;;;;;;;;5105472;28;20183;-82
2024/01/23 03:35:57;;;;;;;10.17;2.30;;;;;;;;;;5082803;28;20651;-81
2024/01/23 03:38:23;;;;;;;17.90;4.47;;;;;;;;;;5100345;28;20397;-82
2024/01/23 03:40:49;;;;;;;13.35;3.58;;;;;;;;;;5099950;28;20516;-82
2024/01/23 03:43:15;;;;;;;10.50;2.43;;;;;;;;;;5118291;28;20200;-82
2024/01/23 03:45:41;;;;;;;16.00;3.03;;;;;;;;;;5100296;28;20399;-82
2024/01/23 03:48:07;;;;;;;17.60;3.50;;;;;;;;;;5118263;28;20399;-82
2024/01/23 03:50:33;;;;;;;18.20;3.55;;;;;;;;;;5118270;28;20516;-82
2024/01/23 03:52:59;;;;;;;16.02;2.20;;;;;;;;;;5117953;28;20160;-81
2024/01/23 03:55:26;;;;;;;15.23;4.00;;;;;;;;;;5118300;28;20193;-83
2024/01/23 03:57:52;;;;;;;13.57;3.25;;;;;;;;;;5100083;28;20404;-82
2024/01/23 04:00:18;;;;;;;17.00;4.60;;;;;;;;;;5118046;28;20623;-82
2024/01/23 04:02:44;;;;;;;16.05;2.80;;;;;;;;;;5117856;28;20176;-83
2024/01/23 04:05:10;;;;;;;12.20;2.93;;;;;;;;;;5109093;28;20195;-83
2024/01/23 04:07:36;;;;;;;8.88;2.15;;;;;;;;;;5097677;28;20397;-81
2024/01/23 04:10:04;;;;;;;17.35;4.00;;;;;;;;;;5103544;28;20257;-83
2024/01/23 04:12:30;;;;;;;13.52;3.45;;;;;;;;;;5085440;28;20649;-83
2024/01/23 04:14:58;;;;;;;26.40;4.50;;;;;;;;;;5097614;28;20191;-82
2024/01/23 04:17:24;;;;;;;21.65;3.92;;;;;;;;;;5097405;28;20800;-82
2024/01/23 04:19:50;;;;;;;15.13;2.50;;;;;;;;;;5097279;28;20171;-82
2024/01/23 04:22:16;;;;;;;15.20;3.05;;;;;;;;;;5097325;28;20403;-82
2024/01/23 04:24:42;;;;;;;13.77;3.93;;;;;;;;;;5078874;28;20172;-83
2024/01/23 04:27:08;;;;;;;21.20;3.90;;;;;;;;;;5097677;28;20462;-82
2024/01/23 04:29:34;;;;;;;21.80;5.17;;;;;;;;;;5078737;28;20187;-82
2024/01/23 04:32:00;;;;;;;14.70;3.60;;;;;;;;;;5096680;28;20461;-82
2024/01/23 04:34:25;;;;;;;22.63;3.20;;;;;;;;;;5078988;28;20951;-82
2024/01/23 04:36:51;;;;;;;12.60;3.60;;;;;;;;;;5062488;28;20411;-83
2024/01/23 04:39:18;;;;;;;12.90;2.93;;;;;;;;;;5096723;28;20176;-82
2024/01/23 04:41:44;;;;;;;13.23;3.22;;;;;;;;;;5078313;28;20525;-83
2024/01/23 04:44:10;;;;;;;13.13;4.13;;;;;;;;;;5097349;28;20207;-81
2024/01/23 04:46:36;;;;;;;17.73;3.60;;;;;;;;;;5103311;28;20404;-82
2024/01/23 04:49:02;;;;;;;19.92;2.95;;;;;;;;;;5112441;28;20234;-83
2024/01/23 04:51:29;;;;;;;12.68;4.50;;;;;;;;;;5116866;28;20225;-83
2024/01/23 04:53:56;;;;;;;11.20;3.40;;;;;;;;;;5098926;28;20186;-83
2024/01/23 04:56:22;;;;;;;17.05;4.57;;;;;;;;;;5117283;28;20262;-83
2024/01/23 04:58:48;;;;;;;18.73;5.35;;;;;;;;;;5116280;28;20173;-83
2024/01/23 05:01:15;;;;;;;14.23;3.53;;;;;;;;;;5116819;28;20175;-83
2024/01/23 05:03:41;;;;;;;10.13;3.75;;;;;;;;;;5117117;28;20638;-83
2024/01/23 05:06:07;;;;;;;20.73;3.20;;;;;;;;;;5116396;28;20266;-83
2024/01/23 05:08:33;;;;;;;18.87;3.70;;;;;;;;;;5117192;28;20904;-81
2024/01/23 05:10:59;;;;;;;17.33;4.20;;;;;;;;;;5116257;28;20525;-83
2024/01/23 05:13:25;;;;;;;16.93;3.63;;;;;;;;;;5116759;28;20441;-84
2024/01/23 05:15:51;;;;;;;14.20;3.10;;;;;;;;;;5085900;28;20510;-82
2024/01/23 05:18:17;;;;;;;15.43;3.40;;;;;;;;;;5099133;28;20462;-83
2024/01/23 05:20:43;;;;;;;29.05;4.55;;;;;;;;;;5115501;28;20260;-83
2024/01/23 05:23:09;;;;;;;12.53;3.63;;;;;;;;;;5116809;28;20186;-83
2024/01/23 05:25:35;;;;;;;17.67;4.30;;;;;;;;;;5098637;28;20729;-83
2024/01/23 05:28:01;;;;;;;14.00;3.45;;;;;;;;;;5097752;28;20544;-83
2024/01/23 05:30:27;;;;;;;12.27;3.53;;;;;;;;;;5116627;28;20214;-83
2024/01/23 05:32:53;;;;;;;16.85;5.00;;;;;;;;;;5110213;28;20174;-83
2024/01/23 05:35:19;;;;;;;14.32;3.17;;;;;;;;;;5110609;28;20180;-82
2024/01/23 05:37:45;;;;;;;18.13;3.67;;;;;;;;;;5098064;28;20167;-83
2024/01/23 05:40:11;;;;;;;11.93;3.63;;;;;;;;;;5116655;28;20477;-83
2024/01/23 05:42:38;;;;;;;25.30;4.07;;;;;;;;;;5115865;28;20172;-82
2024/01/23 05:45:04;;;;;;;11.27;3.15;;;;;;;;;;5115660;28;20256;-81
2024/01/23 05:47:30;;;;;;;18.33;3.10;;;;;;;;;;5115862;28;20513;-83
2024/01/23 05:49:56;;;;;;;18.75;3.03;;;;;;;;;;5115412;28;20678;-83
2024/01/23 05:52:22;;;;;;;21.70;3.97;;;;;;;;;;5097297;28;20235;-82
2024/01/23 05:54:49;;;;;;;22.67;4.17;;;;;;;;;;5115486;28;20171;-83
2024/01/23 05:57:16;;;;;;;23.75;4.40;;;;;;;;;;5116238;28;20470;-82
2024/01/23 05:59:42;;;;;;;12.93;3.65;;;;;;;;;;5116211;28;20615;-87
2024/01/23 06:02:08;;;;;;;13.88;3.90;;;;;;;;;;5098453;28;20556;-83
2024/01/23 06:04:35;;;;;;;27.65;3.90;;;;;;;;;;5115869;28;20211;-83
2024/01/23 06:07:04;;;;;;;15.20;3.50;;;;;;;;;;5097640;28;20178;-82
2024/01/23 06:09:30;;;;;;;24.27;3.45;;;;;;;;;;5116224;28;20508;-83
2024/01/23 06:11:56;;;;;;;18.10;4.27;;;;;;;;;;5115753;28;20205;-83
2024/01/23 06:14:22;;;;;;;23.17;3.80;;;;;;;;;;5116278;28;20451;-83
2024/01/23 06:16:48;;;;;;;16.83;3.40;;;;;;;;;;5115437;28;20539;-83
2024/01/23 06:19:14;;;;;;;19.97;4.77;;;;;;;;;;5115743;28;20406;-83
2024/01/23 06:21:40;;;;;;;16.35;3.95;;;;;;;;;;5097418;28;20497;-82
2024/01/23 06:24:06;;;;;;;20.13;5.30;;;;;;;;;;5115494;28;20168;-82
2024/01/23 06:26:32;;;;;;;17.85;4.05;;;;;;;;;;5116018;28;20402;-83
2024/01/23 06:28:58;;;;;;;20.88;4.90;;;;;;;;;;5115461;28;20598;-83
2024/01/23 06:31:28;;;;;;;23.13;5.28;;;;;;;;;;5115499;28;20761;-83
2024/01/23 06:33:54;;;;;;;14.18;2.88;;;;;;;;;;5097438;28;20207;-82
2024/01/23 06:36:20;;;;;;;20.40;4.22;;;;;;;;;;5097870;28;20221;-83
2024/01/23 06:38:46;;;;;;;13.00;3.85;;;;;;;;;;5115581;28;20267;-83
2024/01/23 06:41:12;;;;;;;25.38;5.10;;;;;;;;;;5116140;28;20207;-83
2024/01/23 06:43:38;;;;;;;16.67;3.47;;;;;;;;;;5116285;28;20585;-83
2024/01/23 06:46:04;;;;;;;19.60;4.70;;;;;;;;;;5116316;28;20638;-83
2024/01/23 06:48:33;;;;;;;8.97;2.63;;;;;;;;;;5115860;28;20878;-83
2024/01/23 06:50:59;;;;;;;21.60;3.25;;;;;;;;;;5115142;28;20495;-83
2024/01/23 06:53:25;;;;;;;20.33;4.83;;;;;;;;;;5115594;28;20615;-83
2024/01/23 06:55:51;;;;;;;12.57;2.53;;;;;;;;;;5115902;28;20405;-83
2024/01/23 06:58:17;;;;;;;14.57;3.25;;;;;;;;;;5115466;28;20190;-83
2024/01/23 07:00:43;;;;;;;13.93;3.63;;;;;;;;;;5115621;28;20615;-83
2024/01/23 07:03:09;;;;;;;13.43;3.20;;;;;;;;;;5097101;28;20504;-83
2024/01/23 07:05:35;;;;;;;16.80;4.97;;;;;;;;;;5118122;28;20414;-82
2024/01/23 07:08:02;;;;;;;15.60;2.80;;;;;;;;;;5119263;28;20206;-83
2024/01/23 07:10:28;;;;;;;20.35;4.45;;;;;;;;;;5119419;28;20191;-82
2024/01/23 07:12:55;;;;;;;18.27;3.55;;;;;;;;;;5100600;28;20240;-83
2024/01/23 07:15:21;;;;;;;16.75;3.45;;;;;;;;;;5101063;28;20638;-82
2024/01/23 07:17:47;;;;;;;9.73;2.85;;;;;;;;;;5118850;28;20172;-84
2024/01/23 07:20:13;;;;;;;11.37;3.83;;;;;;;;;;5101019;28;20187;-82
2024/01/23 07:22:39;;;;;;;21.73;4.70;;;;;;;;;;5119308;28;20403;-81
2024/01/23 07:25:05;;;;;;;18.93;3.93;;;;;;;;;;5119165;28;20576;-81
2024/01/23 07:27:32;;;;;;;12.85;2.30;;;;;;;;;;5118557;28;20402;-82
2024/01/23 07:29:58;;;;;;;15.47;2.63;;;;;;;;;;5118450;28;20168;-83
2024/01/23 07:32:24;;;;;;;12.57;3.20;;;;;;;;;;5119160;28;20211;-82
2024/01/23 07:34:50;;;;;;;11.73;2.90;;;;;;;;;;5118344;28;20270;-82
2024/01/23 07:37:16;;;;;;;17.50;3.95;;;;;;;;;;5119286;28;20405;-82
2024/01/23 07:39:42;;;;;;;11.23;3.93;;;;;;;;;;5118660;28;20524;-82
2024/01/23 07:42:08;;;;;;;14.40;3.30;;;;;;;;;;5118576;28;20440;-81
2024/01/23 07:44:38;;;;;;;17.73;3.43;;;;;;;;;;5100716;28;20437;-81
2024/01/23 07:47:04;;;;;;;7.78;2.70;;;;;;;;;;5118614;28;20966;-85
2024/01/23 07:49:30;;;;;;;15.82;4.72;;;;;;;;;;5085951;28;20697;-82
2024/01/23 07:51:56;;;;;;;11.80;2.97;;;;;;;;;;5077776;28;20205;-83
2024/01/23 07:54:22;;;;;;;12.57;2.43;;;;;;;;;;5078869;28;20835;-82
2024/01/23 07:56:50;;;;;;;17.03;3.40;;;;;;;;;;5078061;28;20395;-83
2024/01/23 07:59:16;;;;;;;11.32;3.17;;;;;;;;;;5077892;28;20414;-82
2024/01/23 08:01:42;;;;;;;24.05;4.80;;;;;;;;;;5078371;28;20263;-82
2024/01/23 08:04:10;;;;;;;16.42;3.35;;;;;;;;;;5077864;28;20520;-83
2024/01/23 08:06:36;;;;;;;10.48;3.20;;;;;;;;;;5077821;28;20187;-84
2024/01/23 08:09:04;;;;;;;23.98;4.15;;;;;;;;;;5077728;28;20169;-82
2024/01/23 08:11:31;;;;;;;15.10;3.67;;;;;;;;;;5076939;28;20263;-81
2024/01/23 08:13:57;;;;;;;6.18;2.60;;;;;;;;;;5076926;28;20304;-83
2024/01/23 08:16:25;;;;;;;13.65;2.60;;;;;;;;;;5057970;28;20525;-83
2024/01/23 08:18:51;;;;;;;11.40;2.90;;;;;;;;;;5058137;28;20504;-83
2024/01/23 08:21:17;;;;;;;15.40;6.07;;;;;;;;;;5057949;28;20185;-82
2024/01/23 08:23:43;;;;;;;12.87;3.23;;;;;;;;;;5063575;28;20982;-83
2024/01/23 08:26:09;;;;;;;15.77;3.08;;;;;;;;;;5078343;28;20404;-82
2024/01/23 08:28:35;;;;;;;11.23;3.55;;;;;;;;;;5078121;28;20180;-83
2024/01/23 08:31:03;;;;;;;15.03;2.80;;;;;;;;;;5077228;28;20197;-83
2024/01/23 08:33:30;;;;;;;15.27;3.55;;;;;;;;;;5077609;28;20407;-82
2024/01/23 08:35:57;;;;;;;20.50;3.95;;;;;;;;;;5077058;28;20229;-82
2024/01/23 08:38:23;;;;;;;28.20;5.20;;;;;;;;;;5077370;28;20255;-82
2024/01/23 08:40:49;;;;;;;12.77;3.40;;;;;;;;;;5076922;28;20234;-82
2024/01/23 08:43:15;;;;;;;24.55;3.35;;;;;;;;;;5076833;28;20403;-82
2024/01/23 08:45:41;;;;;;;14.65;2.97;;;;;;;;;;5077479;28;20205;-82
2024/01/23 08:48:07;;;;;;;13.57;4.07;;;;;;;;;;5077819;28;20245;-82
2024/01/23 08:50:33;;;;;;;26.00;3.55;;;;;;;;;;5117943;28;20471;-82
2024/01/23 08:52:59;;;;;;;10.97;3.73;;;;;;;;;;5117485;28;20182;-82
2024/01/23 08:55:25;;;;;;;14.57;3.63;;;;;;;;;;5117785;28;20484;-82
2024/01/23 08:57:51;;;;;;;8.00;3.33;;;;;;;;;;5118222;28;20498;-82
2024/01/23 09:00:17;;;;;;;17.37;4.60;;;;;;;;;;5117634;28;20454;-82
2024/01/23 09:02:43;;;;;;;23.67;4.95;;;;;;;;;;5100105;28;20415;-83
2024/01/23 09:05:09;;;;;;;11.47;4.40;;;;;;;;;;5117522;28;20568;-82
2024/01/23 09:07:35;;;;;;;20.23;4.23;;;;;;;;;;5117434;28;20417;-83
2024/01/23 09:10:01;;;;;;;21.77;4.47;;;;;;;;;;5117334;28;20397;-82
2024/01/23 09:12:29;;;;;;;12.23;3.20;;;;;;;;;;5099282;28;20179;-82
2024/01/23 09:14:55;;;;;;;15.20;3.60;;;;;;;;;;5117349;28;20401;-82
2024/01/23 09:17:21;;;;;;;14.68;3.45;;;;;;;;;;5117358;28;20648;-81
2024/01/23 09:19:47;;;;;;;14.27;3.80;;;;;;;;;;5117625;28;20177;-82
2024/01/23 09:22:14;;;;;;;19.37;3.87;;;;;;;;;;5117581;28;20443;-82
2024/01/23 09:24:41;;;;;;;15.52;4.22;;;;;;;;;;5117373;28;20398;-82
2024/01/23 09:27:07;;;;;;;18.38;3.83;;;;;;;;;;5116740;28;20185;-82
2024/01/23 09:29:33;;;;;;;23.23;6.10;;;;;;;;;;5116935;28;20180;-81
2024/01/23 09:31:59;;;;;;;14.18;3.58;;;;;;;;;;5117033;28;20482;-83
2024/01/23 09:34:25;;;;;;;10.77;3.13;;;;;;;;;;5117585;28;20165;-80
2024/01/23 09:36:52;;;;;;;24.05;5.03;;;;;;;;;;5117267;28;20220;-83
2024/01/23 09:39:18;;;;;;;24.00;4.60;;;;;;;;;;5117591;28;20660;-82
2024/01/23 09:41:50;;;;;;;14.73;4.03;;;;;;;;;;5099116;28;20188;-81
2024/01/23 09:44:19;;;;;;;22.70;4.45;;;;;;;;;;5123615;28;20178;-81
2024/01/23 09:46:45;;;;;;;20.95;4.00;;;;;;;;;;5120801;28;20198;-82
2024/01/23 09:49:12;;;;;;;21.90;4.25;;;;;;;;;;5098175;28;20560;-81
2024/01/23 09:51:47;;;;;;;26.15;5.47;;;;;;;;;;5096843;28;20193;-82
2024/01/23 09:54:14;;;;;;;38.95;4.30;;;;;;;;;;5096310;28;20179;-82
2024/01/23 09:56:40;;;;;;;11.98;3.25;;;;;;;;;;5113933;28;20541;-82
2024/01/23 09:59:07;;;;;;;27.10;4.95;;;;;;;;;;5117354;28;20567;-82
2024/01/23 10:01:34;;;;;;;21.77;4.22;;;;;;;;;;5098574;28;20217;-81
2024/01/23 10:04:01;;;;;;;24.25;3.83;;;;;;;;;;5116628;28;20185;-82
2024/01/23 10:06:27;;;;;;;24.65;4.60;;;;;;;;;;5117042;28;20530;-82
2024/01/23 10:08:53;;;;;;;26.15;5.53;;;;;;;;;;5098662;28;20695;-86
2024/01/23 10:11:19;;;;;;;18.60;3.17;;;;;;;;;;5116979;28;20207;-81
2024/01/23 10:13:46;;;;;;;18.92;4.25;;;;;;;;;;5116909;28;20402;-82
2024/01/23 10:16:12;;;;;;;13.57;4.38;;;;;;;;;;5116710;28;20208;-82
2024/01/23 10:18:38;;;;;;;14.97;3.90;;;;;;;;;;5116505;28;20258;-81
2024/01/23 10:21:04;;;;;;;11.17;3.87;;;;;;;;;;5116665;28;20416;-81
2024/01/23 10:23:30;;;;;;;11.30;3.10;;;;;;;;;;5116293;28;20844;-82
2024/01/23 10:25:59;;;;;;;14.47;3.33;;;;;;;;;;5115977;28;20163;-82
2024/01/23 10:28:25;;;;;;;21.98;4.97;;;;;;;;;;5116193;28;20417;-81
2024/01/23 10:30:53;;;;;;;13.30;3.50;;;;;;;;;;5116015;28;20576;-82
2024/01/23 10:33:19;;;;;;;23.17;4.18;;;;;;;;;;5115625;28;20412;-82
2024/01/23 10:35:45;;;;;;;15.43;3.22;;;;;;;;;;5115556;28;20176;-81
2024/01/23 10:38:16;;;;;;;17.35;3.28;;;;;;;;;;5115391;28;20187;-82
2024/01/23 10:40:42;;;;;;;21.83;4.72;;;;;;;;;;5119149;28;20198;-82
2024/01/23 10:43:09;;;;;;;16.70;3.70;;;;;;;;;;5119302;28;20696;-82
2024/01/23 10:45:36;;;;;;;16.58;3.50;;;;;;;;;;5119481;28;20186;-81
2024/01/23 10:48:06;;;;;;;15.98;3.65;;;;;;;;;;5119351;28;20206;-82
2024/01/23 10:50:34;;;;;;;31.17;4.18;;;;;;;;;;5119348;28;20250;-81
2024/01/23 10:53:05;;;;;;;15.77;3.88;;;;;;;;;;5119602;28;20539;-85
2024/01/23 10:55:37;;;;;;;11.75;3.45;;;;;;;;;;5119483;28;20198;-81
2024/01/23 10:58:04;;;;;;;11.48;3.78;;;;;;;;;;5119142;28;20526;-82
2024/01/23 11:00:32;;;;;;;11.57;3.25;;;;;;;;;;5119581;28;20210;-81
2024/01/23 11:03:04;;;;;;;18.30;4.10;;;;;;;;;;5119846;28;20167;-81
2024/01/23 11:05:52;;;;;;;13.65;4.30;;;;;;;;;;5119685;28;20179;-81
2024/01/23 11:08:24;;;;;;;20.92;5.05;;;;;;;;;;5119442;28;20152;-83
2024/01/23 11:10:56;;;;;;;20.77;4.28;;;;;;;;;;5119343;28;20211;-80
2024/01/23 11:13:35;;;;;;;10.02;3.78;;;;;;;;;;5100409;28;20179;-81
2024/01/23 11:16:08;;;;;;;10.70;2.85;;;;;;;;;;5119338;28;20163;-85
2024/01/23 11:18:34;;;;;;;12.68;3.00;;;;;;;;;;5119223;28;20224;-81
2024/01/23 11:23:32;;;;;;;21.98;4.97;;;;;;;;;;5121628;28;20223;-82
2024/01/23 11:25:58;;;;;;;19.13;4.20;;;;;;;;;;5119244;28;20174;-81
2024/01/23 11:28:26;;;;;;;19.85;5.05;;;;;;;;;;5118432;28;20168;-82
2024/01/23 11:31:15;;;;;;;21.67;4.03;;;;;;;;;;5119037;28;20296;-81
2024/01/23 11:33:41;;;;;;;17.08;3.15;;;;;;;;;;5118336;28;20167;-81
2024/01/23 11:36:11;;;;;;;15.73;3.63;;;;;;;;;;5118290;28;20523;-82
2024/01/23 11:38:44;;;;;;;15.57;4.55;;;;;;;;;;5120469;28;20424;-80
2024/01/23 11:41:23;;;;;;;8.45;2.90;;;;;;;;;;5119937;28;20171;-83
2024/01/23 11:43:50;;;;;;;16.33;3.72;;;;;;;;;;5102013;28;20171;-81
2024/01/23 11:46:26;;;;;;;15.77;2.92;;;;;;;;;;5080471;28;20171;-81
2024/01/23 11:48:52;;;;;;;16.10;3.92;;;;;;;;;;5097952;28;20230;-81
2024/01/23 11:51:19;;;;;;;15.90;3.10;;;;;;;;;;5097223;28;20204;-82
2024/01/23 11:53:45;;;;;;;22.63;4.95;;;;;;;;;;5097904;28;20175;-80
2024/01/23 11:56:12;;;;;;;13.75;3.97;;;;;;;;;;5097366;28;20176;-81
2024/01/23 11:58:38;;;;;;;11.57;2.88;;;;;;;;;;5079253;28;20604;-81
2024/01/23 12:01:05;;;;;;;16.45;2.83;;;;;;;;;;5097409;28;20200;-82
2024/01/23 12:03:31;;;;;;;16.85;4.28;;;;;;;;;;5097500;28;20239;-81
2024/01/23 12:05:57;;;;;;;12.65;3.22;;;;;;;;;;5097333;28;20183;-81
2024/01/23 12:08:23;;;;;;;9.48;2.90;;;;;;;;;;5108518;28;20168;-80
2024/01/23 12:10:50;;;;;;;13.57;3.58;;;;;;;;;;5102610;28;20236;-80
2024/01/23 12:13:16;;;;;;;14.32;3.75;;;;;;;;;;5097557;28;20160;-81
2024/01/23 12:15:42;;;;;;;18.33;3.30;;;;;;;;;;5104809;28;20199;-82
2024/01/23 12:18:13;;;;;;;12.05;3.28;;;;;;;;;;5118019;28;20159;-82
2024/01/23 12:20:41;;;;;;;14.15;3.85;;;;;;;;;;5118205;28;20173;-80
2024/01/23 12:23:07;;;;;;;12.10;4.40;;;;;;;;;;5117912;28;20206;-82
2024/01/23 12:25:33;;;;;;;12.67;4.20;;;;;;;;;;5117427;28;20167;-82
2024/01/23 12:27:59;;;;;;;17.53;4.23;;;;;;;;;;5117299;28;20408;-82
2024/01/23 12:30:25;;;;;;;13.23;3.70;;;;;;;;;;5117174;28;20410;-81
2024/01/23 12:32:51;;;;;;;14.73;4.75;;;;;;;;;;5117954;28;20412;-81
2024/01/23 12:35:17;;;;;;;18.80;4.40;;;;;;;;;;5117272;28;20182;-82
2024/01/23 12:37:43;;;;;;;13.70;4.03;;;;;;;;;;5117354;28;20595;-83
2024/01/23 12:40:10;;;;;;;14.03;4.50;;;;;;;;;;5117050;28;20469;-82
2024/01/23 12:42:43;;;;;;;13.50;4.05;;;;;;;;;;5117455;28;20417;-81
2024/01/23 12:45:11;;;;;;;14.38;3.20;;;;;;;;;;5108026;28;20172;-81
2024/01/23 12:47:37;;;;;;;25.08;4.68;;;;;;;;;;5096887;28;20175;-81
2024/01/23 12:50:04;;;;;;;13.38;3.13;;;;;;;;;;5097678;28;20311;-81
2024/01/23 12:52:30;;;;;;;12.35;3.03;;;;;;;;;;5096871;28;20640;-82
2024/01/23 12:54:56;;;;;;;21.30;4.65;;;;;;;;;;5097486;28;20184;-81
2024/01/23 12:57:22;;;;;;;17.88;4.25;;;;;;;;;;5096920;28;20198;-82
2024/01/23 12:59:49;;;;;;;18.00;4.93;;;;;;;;;;5097098;28;20172;-82
2024/01/23 13:02:15;;;;;;;18.17;3.85;;;;;;;;;;5096870;28;20168;-82
2024/01/23 13:04:41;;;;;;;11.48;4.10;;;;;;;;;;5096914;28;20183;-81
2024/01/23 13:07:08;;;;;;;16.90;4.00;;;;;;;;;;5096493;28;20531;-82
2024/01/23 13:09:34;;;;;;;18.73;3.92;;;;;;;;;;5096914;28;20742;-81
2024/01/23 13:12:00;;;;;;;10.80;3.40;;;;;;;;;;5096984;28;20212;-82
2024/01/23 13:14:28;;;;;;;11.83;3.40;;;;;;;;;;5115060;28;20405;-82
2024/01/23 13:16:54;;;;;;;18.88;3.83;;;;;;;;;;5117650;28;20397;-81
2024/01/23 13:19:20;;;;;;;15.80;4.00;;;;;;;;;;5117029;28;20672;-81
2024/01/23 13:21:46;;;;;;;17.85;4.07;;;;;;;;;;5117317;28;20408;-82
2024/01/23 13:24:12;;;;;;;16.00;3.53;;;;;;;;;;5116972;28;20207;-82
2024/01/23 13:26:39;;;;;;;16.02;3.50;;;;;;;;;;5116888;28;20170;-82
2024/01/23 13:29:05;;;;;;;22.30;3.70;;;;;;;;;;5116786;28;20160;-81
2024/01/23 13:31:35;;;;;;;14.60;3.93;;;;;;;;;;5108758;28;20267;-83
2024/01/23 13:34:02;;;;;;;12.38;3.15;;;;;;;;;;5104680;28;20917;-83
2024/01/23 13:36:28;;;;;;;22.35;3.45;;;;;;;;;;5096582;28;20540;-82
2024/01/23 13:38:54;;;;;;;18.92;4.45;;;;;;;;;;5078237;28;20172;-81
2024/01/23 13:41:20;;;;;;;20.02;4.15;;;;;;;;;;5095837;28;20180;-81
2024/01/23 13:43:46;;;;;;;22.43;3.70;;;;;;;;;;5097188;28;20179;-82
2024/01/23 13:46:12;;;;;;;13.30;3.50;;;;;;;;;;5106070;28;20425;-81
2024/01/23 13:48:38;;;;;;;19.43;4.57;;;;;;;;;;5116430;28;20219;-81
2024/01/23 13:51:04;;;;;;;21.45;3.60;;;;;;;;;;5116125;28;20472;-82
2024/01/23 13:53:30;;;;;;;13.70;3.05;;;;;;;;;;5095582;28;20180;-82
2024/01/23 13:55:56;;;;;;;17.50;4.53;;;;;;;;;;5083990;28;20190;-82
2024/01/23 13:58:22;;;;;;;21.42;4.53;;;;;;;;;;5097784;28;20397;-82
2024/01/23 14:00:48;;;;;;;14.38;3.42;;;;;;;;;;5115934;28;20232;-82
2024/01/23 14:03:14;;;;;;;13.73;3.20;;;;;;;;;;5115909;28;20524;-84
2024/01/23 14:05:40;;;;;;;11.03;3.77;;;;;;;;;;5115756;28;20163;-82
2024/01/23 14:08:07;;;;;;;18.75;4.43;;;;;;;;;;5115870;28;20816;-82
2024/01/23 14:10:34;;;;;;;12.50;3.38;;;;;;;;;;5115379;28;20673;-82
2024/01/23 14:13:00;;;;;;;15.60;3.58;;;;;;;;;;5115750;28;20516;-82
2024/01/23 14:15:26;;;;;;;16.08;4.32;;;;;;;;;;5114352;28;20243;-82
2024/01/23 14:17:52;;;;;;;20.85;3.67;;;;;;;;;;5115272;28;20179;-83
2024/01/23 14:20:18;;;;;;;12.73;3.63;;;;;;;;;;5115121;28;20262;-82
2024/01/23 14:22:45;;;;;;;11.77;2.85;;;;;;;;;;5115598;28;20525;-81
2024/01/23 14:25:12;;;;;;;17.98;4.72;;;;;;;;;;5115475;28;20228;-82
2024/01/23 14:27:42;;;;;;;11.02;2.40;;;;;;;;;;5115249;28;20718;-82
2024/01/23 14:30:08;;;;;;;15.48;4.50;;;;;;;;;;5115249;28;20171;-81